sensor_id;sensor_type;location;lat;lon;timestamp;P1;durP1;ratioP1;P2;durP2;ratioP2
75785;SDS011;64402;44.708;37.644;2023-04-25T00:01:33;4.28;;;1.55;;
75785;SDS011;64402;44.708;37.644;2023-04-25T00:04:01;3.97;;;1.33;;
75785;SDS011;64402;44.708;37.644;2023-04-25T00:06:28;5.75;;;1.70;;
75785;SDS011;64402;44.708;37.644;2023-04-25T00:08:57;3.38;;;1.35;;
75785;SDS011;64402;44.708;37.644;2023-04-25T00:11:23;5.72;;;1.35;;
75785;SDS011;64402;44.708;37.644;2023-04-25T00:13:50;4.80;;;1.38;;
75785;SDS011;64402;44.708;37.644;2023-04-25T00:16:16;4.50;;;1.33;;
75785;SDS011;64402;44.708;37.644;2023-04-25T00:18:43;4.35;;;1.10;;
75785;SDS011;64402;44.708;37.644;2023-04-25T00:21:09;3.08;;;1.20;;
75785;SDS011;64402;44.708;37.644;2023-04-25T00:23:36;7.40;;;1.40;;
75785;SDS011;64402;44.708;37.644;2023-04-25T00:26:02;7.90;;;1.50;;
75785;SDS011;64402;44.708;37.644;2023-04-25T00:28:28;7.47;;;1.30;;
75785;SDS011;64402;44.708;37.644;2023-04-25T00:30:55;6.13;;;1.38;;
75785;SDS011;64402;44.708;37.644;2023-04-25T00:33:21;4.32;;;1.42;;
75785;SDS011;64402;44.708;37.644;2023-04-25T00:35:47;5.97;;;1.50;;
75785;SDS011;64402;44.708;37.644;2023-04-25T00:38:13;5.00;;;1.70;;
75785;SDS011;64402;44.708;37.644;2023-04-25T00:40:40;8.25;;;1.48;;
75785;SDS011;64402;44.708;37.644;2023-04-25T00:43:09;6.35;;;1.63;;
75785;SDS011;64402;44.708;37.644;2023-04-25T00:45:35;4.47;;;1.23;;
75785;SDS011;64402;44.708;37.644;2023-04-25T00:48:04;4.78;;;1.17;;
75785;SDS011;64402;44.708;37.644;2023-04-25T00:50:32;5.53;;;1.40;;
75785;SDS011;64402;44.708;37.644;2023-04-25T00:52:59;3.92;;;1.30;;
75785;SDS011;64402;44.708;37.644;2023-04-25T00:55:26;3.67;;;1.40;;
75785;SDS011;64402;44.708;37.644;2023-04-25T00:57:52;6.25;;;1.15;;
75785;SDS011;64402;44.708;37.644;2023-04-25T01:00:19;6.45;;;1.70;;
75785;SDS011;64402;44.708;37.644;2023-04-25T01:02:45;7.25;;;1.85;;
75785;SDS011;64402;44.708;37.644;2023-04-25T01:05:12;3.95;;;1.50;;
75785;SDS011;64402;44.708;37.644;2023-04-25T01:07:39;6.53;;;1.60;;
75785;SDS011;64402;44.708;37.644;2023-04-25T01:10:06;6.57;;;1.60;;
75785;SDS011;64402;44.708;37.644;2023-04-25T01:12:33;4.50;;;1.27;;
75785;SDS011;64402;44.708;37.644;2023-04-25T01:14:59;6.32;;;1.30;;
75785;SDS011;64402;44.708;37.644;2023-04-25T01:17:26;4.78;;;1.40;;
75785;SDS011;64402;44.708;37.644;2023-04-25T01:19:52;7.18;;;1.42;;
75785;SDS011;64402;44.708;37.644;2023-04-25T01:22:19;3.88;;;1.10;;
75785;SDS011;64402;44.708;37.644;2023-04-25T01:24:46;6.30;;;1.40;;
75785;SDS011;64402;44.708;37.644;2023-04-25T01:27:12;7.25;;;1.40;;
75785;SDS011;64402;44.708;37.644;2023-04-25T01:29:39;7.60;;;1.60;;
75785;SDS011;64402;44.708;37.644;2023-04-25T01:32:05;6.30;;;1.13;;
75785;SDS011;64402;44.708;37.644;2023-04-25T01:34:35;4.20;;;1.50;;
75785;SDS011;64402;44.708;37.644;2023-04-25T01:37:01;6.28;;;1.40;;
75785;SDS011;64402;44.708;37.644;2023-04-25T01:39:27;5.85;;;1.42;;
75785;SDS011;64402;44.708;37.644;2023-04-25T01:41:54;4.57;;;1.45;;
75785;SDS011;64402;44.708;37.644;2023-04-25T01:44:20;7.65;;;1.80;;
75785;SDS011;64402;44.708;37.644;2023-04-25T01:46:46;4.50;;;1.13;;
75785;SDS011;64402;44.708;37.644;2023-04-25T01:49:12;5.85;;;1.67;;
75785;SDS011;64402;44.708;37.644;2023-04-25T01:51:39;5.03;;;1.33;;
75785;SDS011;64402;44.708;37.644;2023-04-25T01:54:05;7.40;;;1.80;;
75785;SDS011;64402;44.708;37.644;2023-04-25T01:56:32;5.97;;;1.90;;
75785;SDS011;64402;44.708;37.644;2023-04-25T01:59:02;7.40;;;2.08;;
75785;SDS011;64402;44.708;37.644;2023-04-25T02:01:30;6.07;;;1.58;;
75785;SDS011;64402;44.708;37.644;2023-04-25T02:03:56;8.45;;;1.85;;
75785;SDS011;64402;44.708;37.644;2023-04-25T02:06:22;6.38;;;2.60;;
75785;SDS011;64402;44.708;37.644;2023-04-25T02:08:48;5.93;;;1.80;;
75785;SDS011;64402;44.708;37.644;2023-04-25T02:11:14;10.55;;;2.20;;
75785;SDS011;64402;44.708;37.644;2023-04-25T02:13:41;6.40;;;1.55;;
75785;SDS011;64402;44.708;37.644;2023-04-25T02:16:07;5.05;;;1.83;;
75785;SDS011;64402;44.708;37.644;2023-04-25T02:18:33;9.95;;;2.45;;
75785;SDS011;64402;44.708;37.644;2023-04-25T02:21:02;6.47;;;2.10;;
75785;SDS011;64402;44.708;37.644;2023-04-25T02:23:28;8.02;;;2.08;;
75785;SDS011;64402;44.708;37.644;2023-04-25T02:25:55;6.82;;;2.25;;
75785;SDS011;64402;44.708;37.644;2023-04-25T02:28:23;8.27;;;2.45;;
75785;SDS011;64402;44.708;37.644;2023-04-25T02:30:51;8.07;;;2.33;;
75785;SDS011;64402;44.708;37.644;2023-04-25T02:33:18;8.07;;;1.98;;
75785;SDS011;64402;44.708;37.644;2023-04-25T02:35:44;8.73;;;2.67;;
75785;SDS011;64402;44.708;37.644;2023-04-25T02:38:10;6.43;;;2.00;;
75785;SDS011;64402;44.708;37.644;2023-04-25T02:40:36;8.80;;;2.58;;
75785;SDS011;64402;44.708;37.644;2023-04-25T02:43:02;7.22;;;2.00;;
75785;SDS011;64402;44.708;37.644;2023-04-25T02:45:28;7.18;;;2.15;;
75785;SDS011;64402;44.708;37.644;2023-04-25T02:47:55;8.75;;;2.20;;
75785;SDS011;64402;44.708;37.644;2023-04-25T02:50:21;4.53;;;1.73;;
75785;SDS011;64402;44.708;37.644;2023-04-25T02:52:47;6.35;;;2.20;;
75785;SDS011;64402;44.708;37.644;2023-04-25T02:55:14;9.60;;;2.60;;
75785;SDS011;64402;44.708;37.644;2023-04-25T02:57:41;4.25;;;1.65;;
75785;SDS011;64402;44.708;37.644;2023-04-25T03:00:07;5.65;;;2.10;;
75785;SDS011;64402;44.708;37.644;2023-04-25T03:02:34;8.05;;;2.10;;
75785;SDS011;64402;44.708;37.644;2023-04-25T03:05:00;4.57;;;1.75;;
75785;SDS011;64402;44.708;37.644;2023-04-25T03:07:27;8.55;;;2.00;;
75785;SDS011;64402;44.708;37.644;2023-04-25T03:09:53;7.75;;;2.10;;
75785;SDS011;64402;44.708;37.644;2023-04-25T03:12:21;5.95;;;1.88;;
75785;SDS011;64402;44.708;37.644;2023-04-25T03:14:47;5.30;;;1.92;;
75785;SDS011;64402;44.708;37.644;2023-04-25T03:17:13;9.73;;;2.58;;
75785;SDS011;64402;44.708;37.644;2023-04-25T03:19:40;7.53;;;2.42;;
75785;SDS011;64402;44.708;37.644;2023-04-25T03:22:06;10.40;;;2.30;;
75785;SDS011;64402;44.708;37.644;2023-04-25T03:24:33;5.78;;;2.33;;
75785;SDS011;64402;44.708;37.644;2023-04-25T03:26:59;5.75;;;2.28;;
75785;SDS011;64402;44.708;37.644;2023-04-25T03:29:26;6.75;;;2.25;;
75785;SDS011;64402;44.708;37.644;2023-04-25T03:31:53;9.25;;;2.22;;
75785;SDS011;64402;44.708;37.644;2023-04-25T03:34:20;10.13;;;2.33;;
75785;SDS011;64402;44.708;37.644;2023-04-25T03:36:47;6.90;;;1.98;;
75785;SDS011;64402;44.708;37.644;2023-04-25T03:39:13;7.85;;;2.13;;
75785;SDS011;64402;44.708;37.644;2023-04-25T03:41:40;6.55;;;1.67;;
75785;SDS011;64402;44.708;37.644;2023-04-25T03:44:06;8.05;;;2.05;;
75785;SDS011;64402;44.708;37.644;2023-04-25T03:46:32;4.88;;;1.42;;
75785;SDS011;64402;44.708;37.644;2023-04-25T03:48:58;5.35;;;1.60;;
75785;SDS011;64402;44.708;37.644;2023-04-25T03:51:25;6.75;;;2.42;;
75785;SDS011;64402;44.708;37.644;2023-04-25T03:53:51;9.77;;;2.20;;
75785;SDS011;64402;44.708;37.644;2023-04-25T03:56:17;7.15;;;2.17;;
75785;SDS011;64402;44.708;37.644;2023-04-25T03:58:44;7.07;;;2.97;;
75785;SDS011;64402;44.708;37.644;2023-04-25T04:01:10;9.20;;;2.42;;
75785;SDS011;64402;44.708;37.644;2023-04-25T04:03:36;9.45;;;2.30;;
75785;SDS011;64402;44.708;37.644;2023-04-25T04:06:06;4.88;;;1.55;;
75785;SDS011;64402;44.708;37.644;2023-04-25T04:08:33;7.88;;;2.38;;
75785;SDS011;64402;44.708;37.644;2023-04-25T04:10:59;6.68;;;2.70;;
75785;SDS011;64402;44.708;37.644;2023-04-25T04:13:26;8.13;;;2.55;;
75785;SDS011;64402;44.708;37.644;2023-04-25T04:15:53;7.57;;;2.15;;
75785;SDS011;64402;44.708;37.644;2023-04-25T04:18:26;12.40;;;2.83;;
75785;SDS011;64402;44.708;37.644;2023-04-25T04:20:52;10.20;;;2.40;;
75785;SDS011;64402;44.708;37.644;2023-04-25T04:23:18;7.85;;;2.30;;
75785;SDS011;64402;44.708;37.644;2023-04-25T04:25:46;10.43;;;2.60;;
75785;SDS011;64402;44.708;37.644;2023-04-25T04:28:13;6.32;;;2.70;;
75785;SDS011;64402;44.708;37.644;2023-04-25T04:30:39;8.48;;;2.65;;
75785;SDS011;64402;44.708;37.644;2023-04-25T04:33:06;8.32;;;2.80;;
75785;SDS011;64402;44.708;37.644;2023-04-25T04:35:33;7.70;;;2.50;;
75785;SDS011;64402;44.708;37.644;2023-04-25T04:37:59;9.88;;;2.67;;
75785;SDS011;64402;44.708;37.644;2023-04-25T04:40:25;6.95;;;2.53;;
75785;SDS011;64402;44.708;37.644;2023-04-25T04:42:51;11.57;;;3.03;;
75785;SDS011;64402;44.708;37.644;2023-04-25T04:45:18;12.63;;;3.10;;
75785;SDS011;64402;44.708;37.644;2023-04-25T04:47:46;9.93;;;2.70;;
75785;SDS011;64402;44.708;37.644;2023-04-25T04:50:13;9.25;;;2.83;;
75785;SDS011;64402;44.708;37.644;2023-04-25T04:52:40;7.38;;;2.80;;
75785;SDS011;64402;44.708;37.644;2023-04-25T04:55:06;8.13;;;2.75;;
75785;SDS011;64402;44.708;37.644;2023-04-25T04:57:34;7.45;;;2.80;;
75785;SDS011;64402;44.708;37.644;2023-04-25T05:00:00;8.45;;;2.97;;
75785;SDS011;64402;44.708;37.644;2023-04-25T05:02:30;10.82;;;3.42;;
75785;SDS011;64402;44.708;37.644;2023-04-25T05:04:56;9.32;;;2.97;;
75785;SDS011;64402;44.708;37.644;2023-04-25T05:07:22;8.52;;;3.15;;
75785;SDS011;64402;44.708;37.644;2023-04-25T05:09:48;7.57;;;3.00;;
75785;SDS011;64402;44.708;37.644;2023-04-25T05:12:15;9.48;;;3.15;;
75785;SDS011;64402;44.708;37.644;2023-04-25T05:14:41;10.38;;;3.25;;
75785;SDS011;64402;44.708;37.644;2023-04-25T05:17:07;13.32;;;3.40;;
75785;SDS011;64402;44.708;37.644;2023-04-25T05:19:34;8.90;;;3.42;;
75785;SDS011;64402;44.708;37.644;2023-04-25T05:22:00;9.02;;;3.05;;
75785;SDS011;64402;44.708;37.644;2023-04-25T05:24:26;7.80;;;2.88;;
75785;SDS011;64402;44.708;37.644;2023-04-25T05:26:55;9.10;;;3.17;;
75785;SDS011;64402;44.708;37.644;2023-04-25T05:29:22;9.57;;;2.85;;
75785;SDS011;64402;44.708;37.644;2023-04-25T05:31:48;7.68;;;2.65;;
75785;SDS011;64402;44.708;37.644;2023-04-25T05:34:14;8.68;;;2.92;;
75785;SDS011;64402;44.708;37.644;2023-04-25T05:36:42;10.32;;;3.10;;
75785;SDS011;64402;44.708;37.644;2023-04-25T05:39:08;7.93;;;2.70;;
75785;SDS011;64402;44.708;37.644;2023-04-25T05:41:34;8.07;;;2.67;;
75785;SDS011;64402;44.708;37.644;2023-04-25T05:44:00;7.85;;;2.55;;
75785;SDS011;64402;44.708;37.644;2023-04-25T05:46:28;6.35;;;2.42;;
75785;SDS011;64402;44.708;37.644;2023-04-25T05:48:54;7.93;;;2.72;;
75785;SDS011;64402;44.708;37.644;2023-04-25T05:51:23;7.97;;;2.42;;
75785;SDS011;64402;44.708;37.644;2023-04-25T05:53:49;8.57;;;2.22;;
75785;SDS011;64402;44.708;37.644;2023-04-25T05:56:15;6.53;;;2.20;;
75785;SDS011;64402;44.708;37.644;2023-04-25T05:58:42;9.07;;;2.47;;
75785;SDS011;64402;44.708;37.644;2023-04-25T06:01:08;8.82;;;2.88;;
75785;SDS011;64402;44.708;37.644;2023-04-25T06:03:35;5.57;;;2.50;;
75785;SDS011;64402;44.708;37.644;2023-04-25T06:06:03;9.20;;;2.35;;
75785;SDS011;64402;44.708;37.644;2023-04-25T06:08:30;7.22;;;2.35;;
75785;SDS011;64402;44.708;37.644;2023-04-25T06:10:57;10.05;;;3.25;;
75785;SDS011;64402;44.708;37.644;2023-04-25T06:13:23;10.40;;;2.58;;
75785;SDS011;64402;44.708;37.644;2023-04-25T06:15:50;8.70;;;2.33;;
75785;SDS011;64402;44.708;37.644;2023-04-25T06:18:16;5.55;;;1.98;;
75785;SDS011;64402;44.708;37.644;2023-04-25T06:20:42;8.93;;;2.38;;
75785;SDS011;64402;44.708;37.644;2023-04-25T06:23:09;6.85;;;2.10;;
75785;SDS011;64402;44.708;37.644;2023-04-25T06:25:35;7.40;;;2.20;;
75785;SDS011;64402;44.708;37.644;2023-04-25T06:28:01;8.93;;;2.38;;
75785;SDS011;64402;44.708;37.644;2023-04-25T06:30:28;9.23;;;3.17;;
75785;SDS011;64402;44.708;37.644;2023-04-25T06:32:55;7.32;;;2.20;;
75785;SDS011;64402;44.708;37.644;2023-04-25T06:35:21;6.28;;;2.00;;
75785;SDS011;64402;44.708;37.644;2023-04-25T06:37:48;13.10;;;2.05;;
75785;SDS011;64402;44.708;37.644;2023-04-25T06:40:14;6.45;;;2.45;;
75785;SDS011;64402;44.708;37.644;2023-04-25T06:42:43;6.43;;;2.03;;
75785;SDS011;64402;44.708;37.644;2023-04-25T06:45:09;7.60;;;2.50;;
75785;SDS011;64402;44.708;37.644;2023-04-25T06:47:36;9.82;;;2.53;;
75785;SDS011;64402;44.708;37.644;2023-04-25T06:50:02;8.07;;;2.42;;
75785;SDS011;64402;44.708;37.644;2023-04-25T06:52:29;9.07;;;2.78;;
75785;SDS011;64402;44.708;37.644;2023-04-25T06:54:55;7.45;;;2.15;;
75785;SDS011;64402;44.708;37.644;2023-04-25T06:57:22;9.38;;;2.60;;
75785;SDS011;64402;44.708;37.644;2023-04-25T06:59:48;6.40;;;2.22;;
75785;SDS011;64402;44.708;37.644;2023-04-25T07:02:14;4.20;;;1.88;;
75785;SDS011;64402;44.708;37.644;2023-04-25T07:04:41;7.85;;;2.38;;
75785;SDS011;64402;44.708;37.644;2023-04-25T07:07:07;6.95;;;2.25;;
75785;SDS011;64402;44.708;37.644;2023-04-25T07:09:34;9.20;;;2.22;;
75785;SDS011;64402;44.708;37.644;2023-04-25T07:12:00;7.20;;;2.10;;
75785;SDS011;64402;44.708;37.644;2023-04-25T07:14:27;9.85;;;2.75;;
75785;SDS011;64402;44.708;37.644;2023-04-25T07:16:54;7.28;;;2.40;;
75785;SDS011;64402;44.708;37.644;2023-04-25T07:19:22;7.25;;;2.63;;
75785;SDS011;64402;44.708;37.644;2023-04-25T07:21:52;7.68;;;2.20;;
75785;SDS011;64402;44.708;37.644;2023-04-25T07:24:18;9.23;;;2.50;;
75785;SDS011;64402;44.708;37.644;2023-04-25T07:26:45;12.15;;;2.60;;
75785;SDS011;64402;44.708;37.644;2023-04-25T07:29:11;6.28;;;2.10;;
75785;SDS011;64402;44.708;37.644;2023-04-25T07:31:38;7.43;;;2.60;;
75785;SDS011;64402;44.708;37.644;2023-04-25T07:34:04;9.55;;;2.45;;
75785;SDS011;64402;44.708;37.644;2023-04-25T07:36:31;8.02;;;2.42;;
75785;SDS011;64402;44.708;37.644;2023-04-25T07:38:57;10.07;;;2.13;;
75785;SDS011;64402;44.708;37.644;2023-04-25T07:41:24;8.32;;;2.47;;
75785;SDS011;64402;44.708;37.644;2023-04-25T07:43:50;7.70;;;2.10;;
75785;SDS011;64402;44.708;37.644;2023-04-25T07:46:16;7.13;;;2.05;;
75785;SDS011;64402;44.708;37.644;2023-04-25T07:48:43;8.20;;;1.95;;
75785;SDS011;64402;44.708;37.644;2023-04-25T07:51:10;11.02;;;2.40;;
75785;SDS011;64402;44.708;37.644;2023-04-25T07:53:36;6.55;;;2.05;;
75785;SDS011;64402;44.708;37.644;2023-04-25T07:56:03;5.55;;;1.92;;
75785;SDS011;64402;44.708;37.644;2023-04-25T07:58:29;6.78;;;1.90;;
75785;SDS011;64402;44.708;37.644;2023-04-25T08:00:56;6.13;;;1.88;;
75785;SDS011;64402;44.708;37.644;2023-04-25T08:03:22;5.53;;;1.83;;
75785;SDS011;64402;44.708;37.644;2023-04-25T08:05:49;9.98;;;2.10;;
75785;SDS011;64402;44.708;37.644;2023-04-25T08:08:15;9.00;;;1.88;;
75785;SDS011;64402;44.708;37.644;2023-04-25T08:10:41;5.95;;;1.92;;
75785;SDS011;64402;44.708;37.644;2023-04-25T08:13:08;8.70;;;2.53;;
75785;SDS011;64402;44.708;37.644;2023-04-25T08:15:34;8.50;;;1.90;;
75785;SDS011;64402;44.708;37.644;2023-04-25T08:18:01;4.32;;;1.90;;
75785;SDS011;64402;44.708;37.644;2023-04-25T08:20:27;4.35;;;1.88;;
75785;SDS011;64402;44.708;37.644;2023-04-25T08:22:53;6.35;;;1.80;;
75785;SDS011;64402;44.708;37.644;2023-04-25T08:25:20;5.78;;;2.10;;
75785;SDS011;64402;44.708;37.644;2023-04-25T08:27:46;6.50;;;1.83;;
75785;SDS011;64402;44.708;37.644;2023-04-25T08:30:13;5.72;;;1.92;;
75785;SDS011;64402;44.708;37.644;2023-04-25T08:32:39;7.47;;;2.00;;
75785;SDS011;64402;44.708;37.644;2023-04-25T08:35:06;9.45;;;2.25;;
75785;SDS011;64402;44.708;37.644;2023-04-25T08:37:33;5.13;;;2.20;;
75785;SDS011;64402;44.708;37.644;2023-04-25T08:39:59;8.38;;;2.28;;
75785;SDS011;64402;44.708;37.644;2023-04-25T08:42:26;5.80;;;1.95;;
75785;SDS011;64402;44.708;37.644;2023-04-25T08:44:54;6.20;;;2.50;;
75785;SDS011;64402;44.708;37.644;2023-04-25T08:47:22;4.47;;;1.52;;
75785;SDS011;64402;44.708;37.644;2023-04-25T08:49:49;8.50;;;2.20;;
75785;SDS011;64402;44.708;37.644;2023-04-25T08:52:19;5.70;;;2.03;;
75785;SDS011;64402;44.708;37.644;2023-04-25T08:54:48;7.80;;;1.85;;
75785;SDS011;64402;44.708;37.644;2023-04-25T08:57:15;7.38;;;2.33;;
75785;SDS011;64402;44.708;37.644;2023-04-25T08:59:41;7.90;;;1.90;;
75785;SDS011;64402;44.708;37.644;2023-04-25T09:02:11;11.18;;;1.90;;
75785;SDS011;64402;44.708;37.644;2023-04-25T09:04:42;8.45;;;2.30;;
75785;SDS011;64402;44.708;37.644;2023-04-25T09:07:09;4.97;;;1.88;;
75785;SDS011;64402;44.708;37.644;2023-04-25T09:09:36;9.85;;;2.47;;
75785;SDS011;64402;44.708;37.644;2023-04-25T09:12:02;9.55;;;2.10;;
75785;SDS011;64402;44.708;37.644;2023-04-25T09:14:28;4.20;;;1.55;;
75785;SDS011;64402;44.708;37.644;2023-04-25T09:19:32;6.03;;;1.75;;
75785;SDS011;64402;44.708;37.644;2023-04-25T09:22:05;7.45;;;1.67;;
75785;SDS011;64402;44.708;37.644;2023-04-25T09:24:39;6.78;;;1.52;;
75785;SDS011;64402;44.708;37.644;2023-04-25T09:27:12;6.10;;;1.48;;
75785;SDS011;64402;44.708;37.644;2023-04-25T09:29:43;5.25;;;1.50;;
75785;SDS011;64402;44.708;37.644;2023-04-25T09:32:14;8.10;;;1.58;;
75785;SDS011;64402;44.708;37.644;2023-04-25T09:34:51;9.40;;;1.80;;
75785;SDS011;64402;44.708;37.644;2023-04-25T09:37:19;3.85;;;1.13;;
75785;SDS011;64402;44.708;37.644;2023-04-25T09:39:54;3.55;;;1.13;;
75785;SDS011;64402;44.708;37.644;2023-04-25T09:42:31;6.15;;;1.25;;
75785;SDS011;64402;44.708;37.644;2023-04-25T09:45:00;7.50;;;1.70;;
75785;SDS011;64402;44.708;37.644;2023-04-25T09:47:30;5.72;;;1.40;;
75785;SDS011;64402;44.708;37.644;2023-04-25T09:49:56;7.57;;;1.60;;
75785;SDS011;64402;44.708;37.644;2023-04-25T09:54:51;5.43;;;1.50;;
75785;SDS011;64402;44.708;37.644;2023-04-25T09:57:18;7.00;;;1.50;;
75785;SDS011;64402;44.708;37.644;2023-04-25T09:59:49;6.78;;;1.50;;
75785;SDS011;64402;44.708;37.644;2023-04-25T10:02:21;5.95;;;1.20;;
75785;SDS011;64402;44.708;37.644;2023-04-25T10:04:51;3.95;;;1.30;;
75785;SDS011;64402;44.708;37.644;2023-04-25T10:07:26;3.45;;;1.00;;
75785;SDS011;64402;44.708;37.644;2023-04-25T10:10:00;9.02;;;1.50;;
75785;SDS011;64402;44.708;37.644;2023-04-25T10:12:29;6.25;;;1.40;;
75785;SDS011;64402;44.708;37.644;2023-04-25T10:14:59;4.43;;;1.35;;
75785;SDS011;64402;44.708;37.644;2023-04-25T10:17:26;6.32;;;1.85;;
75785;SDS011;64402;44.708;37.644;2023-04-25T10:19:55;6.35;;;1.52;;
75785;SDS011;64402;44.708;37.644;2023-04-25T10:22:35;4.53;;;1.30;;
75785;SDS011;64402;44.708;37.644;2023-04-25T10:25:04;6.55;;;1.80;;
75785;SDS011;64402;44.708;37.644;2023-04-25T10:27:32;6.60;;;1.48;;
75785;SDS011;64402;44.708;37.644;2023-04-25T10:35:10;5.60;;;1.67;;
75785;SDS011;64402;44.708;37.644;2023-04-25T10:37:38;4.90;;;1.40;;
75785;SDS011;64402;44.708;37.644;2023-04-25T10:40:10;4.13;;;1.10;;
75785;SDS011;64402;44.708;37.644;2023-04-25T10:42:37;9.18;;;1.77;;
75785;SDS011;64402;44.708;37.644;2023-04-25T10:45:06;3.40;;;1.08;;
75785;SDS011;64402;44.708;37.644;2023-04-25T10:47:36;6.20;;;1.58;;
75785;SDS011;64402;44.708;37.644;2023-04-25T10:50:14;8.60;;;1.95;;
75785;SDS011;64402;44.708;37.644;2023-04-25T10:52:43;5.97;;;1.67;;
75785;SDS011;64402;44.708;37.644;2023-04-25T10:55:10;6.88;;;1.90;;
75785;SDS011;64402;44.708;37.644;2023-04-25T10:57:37;4.28;;;1.40;;
75785;SDS011;64402;44.708;37.644;2023-04-25T11:02:51;5.63;;;1.63;;
75785;SDS011;64402;44.708;37.644;2023-04-25T11:08:00;6.28;;;1.55;;
75785;SDS011;64402;44.708;37.644;2023-04-25T11:10:29;6.75;;;1.80;;
75785;SDS011;64402;44.708;37.644;2023-04-25T11:12:57;7.20;;;1.70;;
75785;SDS011;64402;44.708;37.644;2023-04-25T11:15:25;3.90;;;1.30;;
75785;SDS011;64402;44.708;37.644;2023-04-25T11:17:52;4.72;;;1.50;;
75785;SDS011;64402;44.708;37.644;2023-04-25T11:20:19;5.30;;;1.35;;
75785;SDS011;64402;44.708;37.644;2023-04-25T11:22:45;11.27;;;1.67;;
75785;SDS011;64402;44.708;37.644;2023-04-25T11:25:13;9.23;;;1.80;;
75785;SDS011;64402;44.708;37.644;2023-04-25T11:30:21;8.10;;;1.50;;
75785;SDS011;64402;44.708;37.644;2023-04-25T11:35:15;4.55;;;1.60;;
75785;SDS011;64402;44.708;37.644;2023-04-25T11:37:42;5.65;;;1.50;;
75785;SDS011;64402;44.708;37.644;2023-04-25T11:40:09;4.03;;;1.30;;
75785;SDS011;64402;44.708;37.644;2023-04-25T11:42:43;6.25;;;1.60;;
75785;SDS011;64402;44.708;37.644;2023-04-25T11:50:05;9.18;;;1.70;;
75785;SDS011;64402;44.708;37.644;2023-04-25T11:52:37;8.60;;;1.75;;
75785;SDS011;64402;44.708;37.644;2023-04-25T11:55:14;5.65;;;1.80;;
75785;SDS011;64402;44.708;37.644;2023-04-25T11:57:46;5.68;;;1.52;;
75785;SDS011;64402;44.708;37.644;2023-04-25T12:00:17;9.00;;;2.22;;
75785;SDS011;64402;44.708;37.644;2023-04-25T12:02:46;11.30;;;2.50;;
75785;SDS011;64402;44.708;37.644;2023-04-25T12:05:16;7.43;;;1.70;;
75785;SDS011;64402;44.708;37.644;2023-04-25T12:07:43;6.53;;;1.75;;
75785;SDS011;64402;44.708;37.644;2023-04-25T12:10:11;4.28;;;1.50;;
75785;SDS011;64402;44.708;37.644;2023-04-25T12:12:41;10.25;;;1.70;;
75785;SDS011;64402;44.708;37.644;2023-04-25T12:17:49;7.00;;;1.77;;
75785;SDS011;64402;44.708;37.644;2023-04-25T12:20:17;7.18;;;1.80;;
75785;SDS011;64402;44.708;37.644;2023-04-25T12:22:51;5.80;;;1.95;;
75785;SDS011;64402;44.708;37.644;2023-04-25T12:25:34;8.95;;;2.33;;
75785;SDS011;64402;44.708;37.644;2023-04-25T12:33:21;5.68;;;1.98;;
75785;SDS011;64402;44.708;37.644;2023-04-25T12:38:24;4.25;;;1.52;;
75785;SDS011;64402;44.708;37.644;2023-04-25T12:40:52;6.68;;;1.70;;
75785;SDS011;64402;44.708;37.644;2023-04-25T12:43:19;5.88;;;1.60;;
75785;SDS011;64402;44.708;37.644;2023-04-25T12:45:48;7.45;;;1.70;;
75785;SDS011;64402;44.708;37.644;2023-04-25T12:48:16;9.27;;;2.40;;
75785;SDS011;64402;44.708;37.644;2023-04-25T12:50:42;9.43;;;1.98;;
75785;SDS011;64402;44.708;37.644;2023-04-25T12:53:09;5.95;;;1.98;;
75785;SDS011;64402;44.708;37.644;2023-04-25T12:55:37;6.40;;;1.50;;
75785;SDS011;64402;44.708;37.644;2023-04-25T12:58:04;4.55;;;1.30;;
75785;SDS011;64402;44.708;37.644;2023-04-25T13:00:30;6.82;;;1.60;;
75785;SDS011;64402;44.708;37.644;2023-04-25T13:02:57;8.27;;;1.88;;
75785;SDS011;64402;44.708;37.644;2023-04-25T13:05:23;5.65;;;1.60;;
75785;SDS011;64402;44.708;37.644;2023-04-25T13:07:49;5.50;;;1.42;;
75785;SDS011;64402;44.708;37.644;2023-04-25T13:10:17;4.20;;;1.20;;
75785;SDS011;64402;44.708;37.644;2023-04-25T13:12:43;7.32;;;2.03;;
75785;SDS011;64402;44.708;37.644;2023-04-25T13:15:11;8.80;;;1.50;;
75785;SDS011;64402;44.708;37.644;2023-04-25T13:17:37;8.82;;;1.73;;
75785;SDS011;64402;44.708;37.644;2023-04-25T13:20:07;9.10;;;2.03;;
75785;SDS011;64402;44.708;37.644;2023-04-25T13:22:35;7.82;;;1.67;;
75785;SDS011;64402;44.708;37.644;2023-04-25T13:25:03;5.30;;;1.65;;
75785;SDS011;64402;44.708;37.644;2023-04-25T13:27:30;6.53;;;1.92;;
75785;SDS011;64402;44.708;37.644;2023-04-25T13:29:58;6.43;;;1.52;;
75785;SDS011;64402;44.708;37.644;2023-04-25T13:32:24;6.38;;;1.38;;
75785;SDS011;64402;44.708;37.644;2023-04-25T13:34:51;7.68;;;1.65;;
75785;SDS011;64402;44.708;37.644;2023-04-25T13:37:18;9.70;;;1.80;;
75785;SDS011;64402;44.708;37.644;2023-04-25T13:39:45;10.65;;;2.30;;
75785;SDS011;64402;44.708;37.644;2023-04-25T13:42:11;9.32;;;2.15;;
75785;SDS011;64402;44.708;37.644;2023-04-25T13:44:37;11.27;;;4.50;;
75785;SDS011;64402;44.708;37.644;2023-04-25T13:47:04;8.10;;;2.53;;
75785;SDS011;64402;44.708;37.644;2023-04-25T13:49:30;5.78;;;2.03;;
75785;SDS011;64402;44.708;37.644;2023-04-25T13:51:56;4.35;;;1.35;;
75785;SDS011;64402;44.708;37.644;2023-04-25T13:54:23;6.68;;;1.60;;
75785;SDS011;64402;44.708;37.644;2023-04-25T13:56:49;7.70;;;1.60;;
75785;SDS011;64402;44.708;37.644;2023-04-25T13:59:16;9.73;;;2.00;;
75785;SDS011;64402;44.708;37.644;2023-04-25T14:01:42;5.07;;;1.42;;
75785;SDS011;64402;44.708;37.644;2023-04-25T14:04:08;10.98;;;1.95;;
75785;SDS011;64402;44.708;37.644;2023-04-25T14:06:35;5.03;;;1.30;;
75785;SDS011;64402;44.708;37.644;2023-04-25T14:09:02;9.30;;;1.50;;
75785;SDS011;64402;44.708;37.644;2023-04-25T14:11:29;5.85;;;1.70;;
75785;SDS011;64402;44.708;37.644;2023-04-25T14:13:56;10.77;;;2.10;;
75785;SDS011;64402;44.708;37.644;2023-04-25T14:16:22;5.22;;;1.70;;
75785;SDS011;64402;44.708;37.644;2023-04-25T14:18:48;8.45;;;1.55;;
75785;SDS011;64402;44.708;37.644;2023-04-25T14:21:15;4.72;;;1.50;;
75785;SDS011;64402;44.708;37.644;2023-04-25T14:23:41;8.52;;;1.40;;
75785;SDS011;64402;44.708;37.644;2023-04-25T14:26:07;8.27;;;1.60;;
75785;SDS011;64402;44.708;37.644;2023-04-25T14:28:38;8.02;;;2.70;;
75785;SDS011;64402;44.708;37.644;2023-04-25T14:31:04;9.65;;;2.50;;
75785;SDS011;64402;44.708;37.644;2023-04-25T14:33:30;7.68;;;1.98;;
75785;SDS011;64402;44.708;37.644;2023-04-25T14:35:56;5.75;;;1.63;;
75785;SDS011;64402;44.708;37.644;2023-04-25T14:38:23;9.57;;;1.83;;
75785;SDS011;64402;44.708;37.644;2023-04-25T14:40:51;4.97;;;1.50;;
75785;SDS011;64402;44.708;37.644;2023-04-25T14:43:19;7.03;;;1.33;;
75785;SDS011;64402;44.708;37.644;2023-04-25T14:45:45;6.70;;;1.20;;
75785;SDS011;64402;44.708;37.644;2023-04-25T14:48:12;10.45;;;1.73;;
75785;SDS011;64402;44.708;37.644;2023-04-25T14:50:38;6.80;;;1.85;;
75785;SDS011;64402;44.708;37.644;2023-04-25T14:53:05;4.93;;;1.73;;
75785;SDS011;64402;44.708;37.644;2023-04-25T14:55:31;3.85;;;1.40;;
75785;SDS011;64402;44.708;37.644;2023-04-25T14:57:57;7.22;;;1.52;;
75785;SDS011;64402;44.708;37.644;2023-04-25T15:00:24;5.97;;;1.38;;
75785;SDS011;64402;44.708;37.644;2023-04-25T15:02:50;10.75;;;1.75;;
75785;SDS011;64402;44.708;37.644;2023-04-25T15:05:17;7.53;;;1.50;;
75785;SDS011;64402;44.708;37.644;2023-04-25T15:07:44;7.65;;;1.70;;
75785;SDS011;64402;44.708;37.644;2023-04-25T15:10:10;8.70;;;1.95;;